Flight Track Log - Related Links

Times and Time Zones

All times are in EDT time to prevent confusion due to time zone crossing. See the N35J flight status page for this flight to view local times or setup timezone preferences in your user account.

Time Position Orientation Groundspeed Altitude Reporting Facility
EDT Latitude Longitude Course Direction KTS MPH feet Rate Location/Type
Fri 07:18:35 PM 41.9833 -88.2167 270° West 118 136 2,600  Level Chicago TRACON
Fri 07:19:06 PM 41.9733 -88.2461 245° Southwest 120 138 2,700 516 Climbing Chicago Center
Fri 07:20:08 PM 41.9536 -88.2828 234° Southwest 120 138 3,400 677 Climbing Chicago Center
Fri 07:21:10 PM 41.9364 -88.3158 235° Southwest 104 120 4,100 726 Climbing Chicago Center
Fri 07:22:12 PM 41.9294 -88.3522 256° West 101 116 4,900 677 Climbing Chicago Center
Fri 07:23:14 PM 41.9186 -88.3914 250° West 104 120 5,500 532 Climbing Chicago Center
Fri 07:24:16 PM 41.9069 -88.4275 247° West 105 121 6,000 290 Climbing Chicago Center
Fri 07:25:18 PM 41.8958 -88.4717 251° West 116 133 6,100 97 Climbing Chicago Center
Fri 07:26:20 PM 41.8847 -88.5142 251° West 121 139 6,200 48 Climbing Chicago Center
Fri 07:27:22 PM 41.8772 -88.5606 258° West 126 145 6,200 -48 Level Chicago Center
Fri 07:28:24 PM 41.8661 -88.6119 254° West 132 152 6,100 -96 Descending Chicago Center
Fri 07:29:27 PM 41.8542 -88.6603 252° West 137 158 6,000 -48 Descending Chicago Center
Fri 07:30:29 PM 41.8408 -88.7100 250° West 133 153 6,000 48 Level Chicago Center
Fri 07:31:31 PM 41.8319 -88.7567 256° West 130 150 6,100 48 Climbing Chicago Center
Fri 07:32:33 PM 41.8275 -88.8050 263° West 124 143 6,100  Level Chicago Center
Fri 07:33:35 PM 41.8264 -88.8475 268° West 120 138 6,100  Level Chicago Center
Fri 07:34:37 PM 41.8278 -88.8911 272° West 118 136 6,100 -48 Level Chicago Center
Fri 07:35:39 PM 41.8306 -88.9347 275° West 119 137 6,000 -48 Descending Chicago Center
Fri 07:36:41 PM 41.8356 -88.9781 279° West 119 137 6,000 48 Level Chicago Center
Fri 07:37:43 PM 41.8447 -89.0297 283° West 119 137 6,100 97 Climbing Chicago Center
Fri 07:38:45 PM 41.8581 -89.0675 295° West 116 133 6,200 -48 Climbing Chicago Center
Fri 07:39:48 PM 41.8672 -89.1083 287° West 116 133 6,000 -96 Descending Chicago Center
Fri 07:40:50 PM 41.8661 -89.1569 268° West 129 148 6,000  Level Chicago Center
Fri 07:41:52 PM 41.8714 -89.1975 280° West 119 137 6,000 48 Level Chicago Center
Fri 07:42:54 PM 41.8667 -89.2528 263° West 123 142 6,100 48 Climbing Chicago Center
Fri 07:43:56 PM 41.8633 -89.2983 264° West 123 142 6,100  Level Chicago Center
Fri 07:44:58 PM 41.8656 -89.3433 274° West 123 142 6,100  Level Chicago Center
Fri 07:46:00 PM 41.8697 -89.3867 277° West 119 137 6,100 48 Level Chicago Center
Fri 07:47:02 PM 41.8656 -89.4311 263° West 120 138 6,200  Climbing Chicago Center
Fri 07:48:04 PM 41.8681 -89.4756 274° West 120 138 6,100 -48 Descending Chicago Center
Fri 07:49:06 PM 41.8728 -89.5294 277° West 121 139 6,100  Level Chicago Center
Fri 07:50:09 PM 41.8744 -89.5742 273° West 122 140 6,100  Level Chicago Center
Fri 07:51:11 PM 41.8750 -89.6186 271° West 120 138 6,100  Level Chicago Center
Fri 07:52:13 PM 41.8786 -89.6617 276° West 118 136 6,100  Level Chicago Center
Fri 07:53:15 PM 41.8858 -89.7047 283° West 118 136 6,100 -48 Level Chicago Center
Fri 07:54:17 PM 41.8853 -89.7475 269° West 124 143 6,000 -48 Descending Chicago Center
Fri 07:55:19 PM 41.8692 -89.8008 248° West 129 148 6,000  Level Chicago Center
Fri 07:56:21 PM 41.8722 -89.8447 275° West 121 139 6,000  Level Chicago Center
Fri 07:57:23 PM 41.8722 -89.8883 270° West 118 136 6,000 48 Level Chicago Center
Fri 07:58:25 PM 41.8739 -89.9319 273° West 120 138 6,100 48 Climbing Chicago Center
Fri 07:59:28 PM 41.8739 -89.9778 270° West 123 142 6,100 -48 Level Chicago Center
Fri 08:00:30 PM 41.8733 -90.0333 269° West 126 145 6,000 -48 Descending Chicago Center
Fri 08:01:32 PM 41.8764 -90.0781 275° West 124 143 6,000 48 Level Chicago Center
Fri 08:02:34 PM 41.8769 -90.1239 271° West 125 144 6,100  Climbing Chicago Center
Fri 08:03:36 PM 41.8786 -90.1689 273° West 124 143 6,000 -48 Descending Chicago Center
Fri 08:04:38 PM 41.8808 -90.2147 274° West 125 144 6,000 48 Level Chicago Center
Fri 08:05:40 PM 41.8842 -90.2678 275° West 122 140 6,100  Climbing Chicago Center
Fri 08:06:42 PM 41.8828 -90.3122 268° West 120 138 6,000 -48 Descending Chicago Center
Fri 08:07:45 PM 41.8800 -90.3586 265° West 121 139 6,000  Level Chicago Center
Fri 08:08:47 PM 41.8792 -90.4050 269° West 124 143 6,000  Level Chicago Center
Fri 08:09:49 PM 41.8747 -90.4497 262° West 122 140 6,000  Level Chicago Center
Fri 08:10:51 PM 41.8764 -90.5050 272° West 124 143 6,000  Level Chicago Center
Fri 08:11:53 PM 41.8769 -90.5500 271° West 122 140 6,000  Level Chicago Center
Fri 08:12:55 PM 41.8769 -90.5958 270° West 123 142 6,000  Level Chicago Center
Fri 08:13:57 PM 41.8772 -90.6400 270° West 121 139 6,000 -48 Level Chicago Center
Fri 08:14:59 PM 41.8767 -90.6856 269° West 121 139 5,900  Descending Chicago Center
Fri 08:16:01 PM 41.8750 -90.7400 268° West 122 140 6,000  Climbing Chicago Center
Fri 08:17:03 PM 41.8733 -90.7833 267° West 120 138 5,900  Descending Chicago Center
Fri 08:18:05 PM 41.8733 -90.8292 270° West 122 140 6,000 48 Climbing Chicago Center
Fri 08:19:08 PM 41.8714 -90.8747 267° West 122 140 6,000  Level Chicago Center
Fri 08:20:10 PM 41.8733 -90.9178 273° West 120 138 6,000  Level Chicago Center
Fri 08:21:12 PM 41.8797 -90.9689 280° West 117 135 6,000  Level Chicago Center
Fri 08:22:14 PM 41.8800 -91.0131 270° West 117 135 6,000 -97 Level Chicago Center
Fri 08:23:16 PM 41.8672 -91.0581 249° West 126 145 5,800 -242 Descending Chicago Center
Fri 08:24:18 PM 41.8511 -91.1017 244° Southwest 130 150 5,500 -387 Descending Chicago Center
Fri 08:25:20 PM 41.8439 -91.1469 258° West 131 151 5,000 -484 Descending Chicago Center
Fri 08:26:22 PM 41.8575 -91.2000 289° West 127 146 4,500 -435 Descending Chicago Center
Fri 08:27:24 PM 41.8731 -91.2386 298° West 123 142 4,100 -387 Descending Chicago Center
Fri 08:28:26 PM 41.8744 -91.2828 272° West 127 146 3,700 -384 Descending Chicago Center
Fri 08:29:29 PM 41.8747 -91.3250 271° West 122 140 3,300 -336 Descending Chicago Center
Fri 08:30:31 PM 41.8803 -91.3692 280° West 120 138 3,000 -145 Descending Chicago Center
Fri 08:31:33 PM 41.8789 -91.4206 268° West 118 136 3,000  Level Chicago Center
Fri 08:32:35 PM 41.8811 -91.4606 274° West 115 132 3,000  Level Chicago Center
Fri 08:33:37 PM 41.8814 -91.4989 271° West 109 125 3,000  Level Chicago Center
Fri 08:34:39 PM 41.8828 -91.5367 273° West 106 122 3,000  Level Chicago Center
Fri 08:35:41 PM 41.8814 -91.5806 268° West 105 121 3,000 -387 Level Chicago Center
Fri 08:36:43 PM 41.8831 -91.6128 274° West 102 117 2,200 -774 Descending Chicago Center
Fri 08:38:00 PM 41.8833 -91.6698 270° West  Level FlightAware Approximate
Fri 08:45:00 PM 41.8833 -91.7000 270° West  Level FlightAware Approximate
Fri 08:46:00 PM 41.8847 -91.7108 270° West  Level Estimated
Fri 08:47:00 PM 41.8847 -91.7108 270° West  Level Estimated
Fri 08:48:00 PM 41.8847 -91.7108 270° West  Level Estimated

Login

Don't have an account? Register now (free) for customized features, flight alerts, and more!